Anzahl Datensätze: 144
min. Temperatur: -0.3 °C
max. Temperatur: 5.2 °C
max. Windgeschwindigkeit: 24.8 km/h
Niederschlagsumme: 0.1 mm
| Datum |
Zeit |
Temp °C |
Feuchte % |
Taupunkt °C |
Luftdruck hPa |
Wind km/h |
Windrichtung |
Strahlung w/m² |
Niederschlag mm |
|---|---|---|---|---|---|---|---|---|---|
| 24.01.2026 | 00:04 | 0.6 | 85 | -1.7 | 999.9 | 1.4 | N | 0 | 0.0 |
| 24.01.2026 | 00:14 | 0.7 | 84 | -1.7 | 1000.1 | 2.5 | N | 0 | 0.0 |
| 24.01.2026 | 00:24 | 0.5 | 86 | -1.7 | 1000.3 | 0.4 | N | 0 | 0.0 |
| 24.01.2026 | 00:34 | 0.8 | 85 | -1.5 | 1000.2 | 1.4 | NNO | 0 | 0.0 |
| 24.01.2026 | 00:45 | 0.8 | 85 | -1.5 | 1000.4 | 2.2 | NNO | 0 | 0.0 |
| 24.01.2026 | 00:55 | 0.9 | 85 | -1.3 | 1000.5 | 3.2 | S | 0 | 0.0 |
| 24.01.2026 | 01:05 | 0.6 | 86 | -1.4 | 1000.6 | 1.8 | N | 0 | 0.0 |
| 24.01.2026 | 01:15 | 0.7 | 87 | -1.2 | 1000.8 | 3.6 | S | 0 | 0.0 |
| 24.01.2026 | 01:25 | 0.9 | 86 | -1.2 | 1000.8 | 1.1 | NNO | 0 | 0.0 |
| 24.01.2026 | 01:35 | 0.6 | 87 | -1.3 | 1001.1 | 1.1 | N | 0 | 0.0 |
| 24.01.2026 | 01:45 | 0.7 | 87 | -1.2 | 1001.0 | 0.7 | S | 0 | 0.0 |
| 24.01.2026 | 01:55 | 0.7 | 87 | -1.2 | 1001.0 | 3.2 | N | 0 | 0.0 |
| 24.01.2026 | 02:05 | 0.6 | 88 | -1.2 | 1001.2 | 2.9 | N | 0 | 0.0 |
| 24.01.2026 | 02:15 | 0.7 | 88 | -1.1 | 1001.0 | 0.7 | N | 0 | 0.0 |
| 24.01.2026 | 02:25 | 0.7 | 88 | -1.0 | 1000.9 | 3.2 | WNW | 0 | 0.1 |
| 24.01.2026 | 02:35 | 0.5 | 88 | -1.2 | 1001.0 | 4.7 | SSW | 0 | 0.1 |
| 24.01.2026 | 02:45 | 0.4 | 90 | -1.0 | 1001.1 | 7.9 | S | 0 | 0.1 |
| 24.01.2026 | 02:55 | 0.4 | 89 | -1.2 | 1001.1 | 1.8 | NNO | 0 | 0.1 |
| 24.01.2026 | 03:05 | 0.3 | 89 | -1.3 | 1001.0 | 4.3 | N | 0 | 0.1 |
| 24.01.2026 | 03:15 | 0.2 | 89 | -1.4 | 1000.7 | 1.1 | N | 0 | 0.1 |
| 24.01.2026 | 03:25 | 0.3 | 89 | -1.2 | 1000.1 | 3.2 | NNW | 0 | 0.1 |
| 24.01.2026 | 03:35 | 0.6 | 89 | -1.0 | 1000.3 | 1.4 | W | 0 | 0.1 |
| 24.01.2026 | 03:45 | 0.6 | 88 | -1.1 | 1000.1 | 1.4 | N | 0 | 0.1 |
| 24.01.2026 | 03:55 | 0.7 | 88 | -1.1 | 1000.1 | 0.4 | N | 0 | 0.1 |
| 24.01.2026 | 04:05 | 0.6 | 88 | -1.2 | 1000.0 | 1.1 | N | 0 | 0.1 |
| 24.01.2026 | 04:15 | 1.1 | 87 | -0.9 | 1000.0 | 1.4 | WSW | 0 | 0.1 |
| 24.01.2026 | 04:25 | 1.2 | 85 | -1.0 | 999.9 | 1.1 | N | 0 | 0.1 |
| 24.01.2026 | 04:35 | 0.8 | 88 | -1.0 | 999.7 | 3.6 | N | 0 | 0.1 |
| 24.01.2026 | 04:45 | 1.0 | 87 | -0.9 | 999.3 | 4.0 | NO | 0 | 0.1 |
| 24.01.2026 | 04:55 | 1.0 | 87 | -1.0 | 999.3 | 2.2 | NO | 0 | 0.1 |
| 24.01.2026 | 05:05 | 0.9 | 86 | -1.1 | 999.3 | 3.2 | NNW | 0 | 0.1 |
| 24.01.2026 | 05:15 | 1.2 | 86 | -0.9 | 999.0 | 1.4 | N | 0 | 0.1 |
| 24.01.2026 | 05:25 | 1.1 | 86 | -1.0 | 998.9 | 2.9 | NNO | 0 | 0.1 |
| 24.01.2026 | 05:35 | 0.7 | 87 | -1.2 | 999.1 | 2.9 | N | 0 | 0.1 |
| 24.01.2026 | 05:45 | 0.5 | 88 | -1.3 | 999.1 | 1.8 | N | 0 | 0.1 |
| 24.01.2026 | 05:56 | 0.5 | 88 | -1.2 | 999.2 | 2.5 | NNO | 0 | 0.1 |
| 24.01.2026 | 06:06 | 0.3 | 88 | -1.5 | 999.2 | 3.2 | N | 0 | 0.1 |
| 24.01.2026 | 06:16 | 0.5 | 87 | -1.4 | 999.2 | 3.2 | N | 0 | 0.1 |
| 24.01.2026 | 06:26 | 0.5 | 88 | -1.3 | 999.1 | 2.2 | N | 0 | 0.1 |
| 24.01.2026 | 06:36 | 0.3 | 88 | -1.4 | 999.2 | 4.3 | N | 0 | 0.1 |
| 24.01.2026 | 06:46 | 0.5 | 88 | -1.2 | 999.2 | 1.4 | S | 0 | 0.1 |
| 24.01.2026 | 06:56 | 0.3 | 89 | -1.3 | 999.6 | 0.7 | N | 0 | 0.1 |
| 24.01.2026 | 07:06 | 0.4 | 89 | -1.2 | 999.5 | 2.2 | N | 0 | 0.1 |
| 24.01.2026 | 07:16 | 0.3 | 88 | -1.4 | 999.7 | 2.9 | NNO | 0 | 0.1 |
| 24.01.2026 | 07:26 | 0.6 | 88 | -1.2 | 999.9 | 3.2 | NNO | 0 | 0.1 |
| 24.01.2026 | 07:36 | 0.3 | 88 | -1.5 | 1000.0 | 3.6 | NO | 0 | 0.1 |
| 24.01.2026 | 07:46 | 0.3 | 87 | -1.5 | 999.9 | 2.5 | N | 0 | 0.1 |
| 24.01.2026 | 07:56 | -0.2 | 89 | -1.8 | 1000.2 | 2.5 | NO | 0 | 0.1 |
| 24.01.2026 | 08:06 | -0.2 | 89 | -1.9 | 1000.5 | 2.5 | NO | 3 | 0.1 |
| 24.01.2026 | 08:16 | 0.2 | 86 | -1.9 | 1000.2 | 2.5 | NO | 6 | 0.1 |
| 24.01.2026 | 08:26 | -0.3 | 87 | -2.2 | 1000.6 | 3.2 | N | 9 | 0.1 |
| 24.01.2026 | 08:36 | 0.1 | 86 | -1.9 | 1000.6 | 2.5 | S | 8 | 0.1 |
| 24.01.2026 | 08:46 | 0.0 | 89 | -1.6 | 1000.5 | 4.7 | S | 10 | 0.1 |
| 24.01.2026 | 08:56 | -0.3 | 90 | -1.7 | 1000.7 | 1.8 | NO | 12 | 0.1 |
| 24.01.2026 | 09:06 | 0.0 | 90 | -1.5 | 1000.7 | 2.2 | NW | 13 | 0.1 |
| 24.01.2026 | 09:16 | 0.4 | 90 | -1.1 | 1000.4 | 1.8 | S | 14 | 0.1 |
| 24.01.2026 | 09:26 | 0.9 | 89 | -0.8 | 1000.5 | 2.5 | N | 27 | 0.1 |
| 24.01.2026 | 09:36 | 0.9 | 88 | -0.9 | 1000.5 | 1.1 | NNO | 35 | 0.1 |
| 24.01.2026 | 09:46 | 1.3 | 86 | -0.7 | 1000.5 | 2.2 | NW | 73 | 0.1 |
| 24.01.2026 | 09:56 | 1.4 | 87 | -0.6 | 1000.7 | 0.7 | NW | 48 | 0.1 |
| 24.01.2026 | 10:06 | 1.5 | 87 | -0.5 | 1000.7 | 4.7 | S | 65 | 0.1 |
| 24.01.2026 | 10:16 | 1.7 | 88 | -0.2 | 1000.7 | 0.4 | N | 147 | 0.1 |
| 24.01.2026 | 10:26 | 1.9 | 85 | -0.3 | 1000.5 | 0.7 | N | 90 | 0.1 |
| 24.01.2026 | 10:36 | 1.9 | 85 | -0.4 | 1000.4 | 4.7 | S | 121 | 0.1 |
| 24.01.2026 | 10:46 | 2.1 | 86 | 0.0 | 1000.5 | 3.2 | S | 159 | 0.1 |
| 24.01.2026 | 10:57 | 2.7 | 84 | 0.1 | 1000.2 | 2.9 | S | 259 | 0.1 |
| 24.01.2026 | 11:07 | 3.1 | 80 | -0.1 | 1000.2 | 5.8 | S | 330 | 0.1 |
| 24.01.2026 | 11:17 | 1.8 | 83 | -0.8 | 1000.4 | 4.3 | S | 244 | 0.1 |
| 24.01.2026 | 11:27 | 2.3 | 82 | -0.6 | 1000.2 | 5.4 | S | 228 | 0.1 |
| 24.01.2026 | 11:37 | 3.1 | 79 | -0.1 | 999.5 | 2.5 | S | 214 | 0.1 |
| 24.01.2026 | 11:47 | 3.3 | 77 | -0.3 | 999.2 | 5.0 | S | 308 | 0.1 |
| 24.01.2026 | 11:57 | 2.7 | 81 | -0.2 | 999.2 | 2.2 | SSO | 338 | 0.1 |
| 24.01.2026 | 12:07 | 2.7 | 79 | -0.5 | 999.0 | 6.8 | S | 323 | 0.1 |
| 24.01.2026 | 12:17 | 2.5 | 82 | -0.3 | 998.9 | 4.7 | SSW | 196 | 0.1 |
| 24.01.2026 | 12:27 | 3.6 | 75 | -0.3 | 998.6 | 2.5 | S | 184 | 0.1 |
| 24.01.2026 | 12:37 | 2.6 | 82 | -0.2 | 998.6 | 4.7 | S | 290 | 0.1 |
| 24.01.2026 | 12:47 | 4.8 | 73 | 0.4 | 998.0 | 7.9 | WSW | 312 | 0.1 |
| 24.01.2026 | 12:57 | 5.1 | 73 | 0.7 | 997.6 | 0.7 | SW | 297 | 0.1 |
| 24.01.2026 | 13:07 | 4.9 | 74 | 0.7 | 997.6 | 3.2 | WSW | 301 | 0.1 |
| 24.01.2026 | 13:17 | 4.9 | 76 | 1.0 | 997.5 | 5.8 | S | 292 | 0.1 |
| 24.01.2026 | 13:27 | 4.4 | 77 | 0.7 | 997.3 | 5.8 | SSW | 261 | 0.1 |
| 24.01.2026 | 13:37 | 4.3 | 75 | 0.3 | 997.1 | 5.8 | S | 235 | 0.1 |
| 24.01.2026 | 13:47 | 4.4 | 79 | 1.1 | 997.1 | 4.3 | WSW | 231 | 0.1 |
| 24.01.2026 | 13:57 | 5.0 | 75 | 1.0 | 996.7 | 2.5 | WSW | 153 | 0.1 |
| 24.01.2026 | 14:07 | 4.5 | 77 | 0.8 | 996.9 | 2.9 | N | 145 | 0.1 |
| 24.01.2026 | 14:17 | 4.7 | 74 | 0.4 | 997.0 | 2.5 | WNW | 332 | 0.1 |
| 24.01.2026 | 14:27 | 5.2 | 74 | 0.8 | 996.8 | 11.2 | SW | 308 | 0.1 |
| 24.01.2026 | 14:37 | 4.9 | 76 | 1.0 | 997.1 | 2.9 | O | 218 | 0.1 |
| 24.01.2026 | 14:47 | 3.9 | 79 | 0.5 | 997.5 | 10.8 | WNW | 167 | 0.1 |
| 24.01.2026 | 14:57 | 3.7 | 79 | 0.5 | 997.7 | 5.0 | SW | 135 | 0.1 |
| 24.01.2026 | 15:07 | 3.1 | 81 | 0.2 | 998.0 | 2.5 | WNW | 88 | 0.1 |
| 24.01.2026 | 15:17 | 3.1 | 81 | 0.2 | 998.2 | 5.0 | NW | 75 | 0.1 |
| 24.01.2026 | 15:27 | 2.9 | 81 | 0.0 | 998.2 | 2.5 | ONO | 83 | 0.1 |
| 24.01.2026 | 15:37 | 2.9 | 81 | 0.1 | 998.4 | 3.2 | N | 82 | 0.1 |
| 24.01.2026 | 15:47 | 2.6 | 84 | 0.2 | 998.8 | 5.0 | SSW | 94 | 0.1 |
| 24.01.2026 | 15:58 | 2.6 | 84 | 0.1 | 998.8 | 2.9 | WSW | 85 | 0.1 |
| 24.01.2026 | 16:08 | 2.3 | 85 | 0.1 | 999.1 | 3.6 | NW | 66 | 0.1 |
| 24.01.2026 | 16:18 | 2.2 | 85 | -0.1 | 999.3 | 10.4 | SSW | 57 | 0.1 |
| 24.01.2026 | 16:28 | 2.0 | 85 | -0.2 | 999.3 | 10.4 | SSW | 34 | 0.1 |
| 24.01.2026 | 16:38 | 2.1 | 85 | -0.2 | 999.4 | 8.3 | SSW | 12 | 0.1 |
| 24.01.2026 | 16:48 | 1.9 | 86 | -0.3 | 999.6 | 8.3 | S | 8 | 0.1 |
| 24.01.2026 | 16:58 | 1.9 | 85 | -0.4 | 999.6 | 11.9 | S | 6 | 0.1 |
| 24.01.2026 | 17:08 | 1.7 | 86 | -0.4 | 999.9 | 22.3 | S | 3 | 0.1 |
| 24.01.2026 | 17:18 | 1.4 | 86 | -0.7 | 1000.0 | 15.8 | SSW | 0 | 0.1 |
| 24.01.2026 | 17:28 | 1.6 | 87 | -0.4 | 1000.0 | 17.3 | S | 0 | 0.1 |
| 24.01.2026 | 17:38 | 1.4 | 87 | -0.6 | 1000.1 | 7.9 | S | 0 | 0.1 |
| 24.01.2026 | 17:48 | 1.2 | 86 | -0.8 | 999.9 | 13.7 | SSW | 0 | 0.1 |
| 24.01.2026 | 17:58 | 1.3 | 86 | -0.8 | 999.9 | 12.6 | SSW | 0 | 0.1 |
| 24.01.2026 | 18:08 | 1.3 | 86 | -0.8 | 999.9 | 6.8 | SSW | 0 | 0.1 |
| 24.01.2026 | 18:18 | 1.3 | 85 | -0.9 | 1000.0 | 8.3 | S | 0 | 0.1 |
| 24.01.2026 | 18:28 | 1.4 | 84 | -1.0 | 999.9 | 2.9 | W | 0 | 0.1 |
| 24.01.2026 | 18:38 | 1.6 | 84 | -0.8 | 999.9 | 5.0 | SSW | 0 | 0.1 |
| 24.01.2026 | 18:48 | 1.8 | 83 | -0.8 | 999.8 | 2.2 | S | 0 | 0.1 |
| 24.01.2026 | 18:58 | 2.0 | 83 | -0.6 | 999.7 | 0.7 | N | 0 | 0.1 |
| 24.01.2026 | 19:08 | 2.2 | 83 | -0.5 | 999.6 | 1.8 | O | 0 | 0.1 |
| 24.01.2026 | 19:18 | 1.9 | 82 | -0.8 | 999.6 | 0.7 | N | 0 | 0.1 |
| 24.01.2026 | 19:28 | 1.7 | 82 | -1.0 | 999.9 | 1.4 | WNW | 0 | 0.1 |
| 24.01.2026 | 19:38 | 1.9 | 83 | -0.8 | 999.7 | 2.2 | WNW | 0 | 0.1 |
| 24.01.2026 | 19:48 | 1.7 | 83 | -1.0 | 999.8 | 0.4 | NW | 0 | 0.1 |
| 24.01.2026 | 19:58 | 1.7 | 83 | -0.9 | 999.6 | 3.2 | NNW | 0 | 0.1 |
| 24.01.2026 | 20:08 | 1.6 | 82 | -1.2 | 999.8 | 5.8 | WSW | 0 | 0.1 |
| 24.01.2026 | 20:18 | 1.7 | 83 | -0.9 | 999.7 | 3.6 | WSW | 0 | 0.1 |
| 24.01.2026 | 20:28 | 1.4 | 83 | -1.2 | 1000.0 | 2.2 | SSO | 0 | 0.1 |
| 24.01.2026 | 20:38 | 1.4 | 83 | -1.3 | 1000.0 | 5.4 | SSW | 0 | 0.1 |
| 24.01.2026 | 20:48 | 1.5 | 83 | -1.1 | 1000.0 | 2.5 | W | 0 | 0.1 |
| 24.01.2026 | 20:58 | 1.4 | 82 | -1.3 | 999.9 | 3.6 | SSW | 0 | 0.1 |
| 24.01.2026 | 21:09 | 1.5 | 81 | -1.4 | 999.5 | 3.2 | S | 0 | 0.1 |
| 24.01.2026 | 21:19 | 1.3 | 83 | -1.3 | 999.4 | 2.5 | S | 0 | 0.1 |
| 24.01.2026 | 21:29 | 1.3 | 83 | -1.3 | 999.6 | 3.6 | SSW | 0 | 0.1 |
| 24.01.2026 | 21:39 | 1.5 | 82 | -1.3 | 999.5 | 1.8 | S | 0 | 0.1 |
| 24.01.2026 | 21:49 | 1.4 | 83 | -1.2 | 999.9 | 1.1 | N | 0 | 0.1 |
| 24.01.2026 | 21:59 | 1.7 | 82 | -1.1 | 1000.2 | 1.1 | SW | 0 | 0.1 |
| 24.01.2026 | 22:09 | 1.5 | 82 | -1.3 | 1000.1 | 0.7 | NNW | 0 | 0.1 |
| 24.01.2026 | 22:19 | 1.5 | 81 | -1.3 | 1000.1 | 2.9 | N | 0 | 0.1 |
| 24.01.2026 | 22:29 | 1.7 | 81 | -1.3 | 1000.0 | 2.5 | NNO | 0 | 0.1 |
| 24.01.2026 | 22:39 | 1.7 | 80 | -1.4 | 999.9 | 1.8 | NNW | 0 | 0.1 |
| 24.01.2026 | 22:49 | 1.2 | 81 | -1.6 | 999.9 | 4.3 | NO | 0 | 0.1 |
| 24.01.2026 | 22:59 | 1.2 | 82 | -1.5 | 1000.0 | 2.9 | N | 0 | 0.1 |
| 24.01.2026 | 23:09 | 1.2 | 82 | -1.6 | 1000.0 | 1.4 | N | 0 | 0.1 |
| 24.01.2026 | 23:19 | 1.5 | 81 | -1.5 | 999.8 | 1.4 | N | 0 | 0.1 |
| 24.01.2026 | 23:29 | 1.2 | 81 | -1.6 | 1000.0 | 1.8 | N | 0 | 0.1 |
| 24.01.2026 | 23:39 | 1.4 | 80 | -1.6 | 1000.3 | 1.1 | N | 0 | 0.1 |
| 24.01.2026 | 23:49 | 1.7 | 80 | -1.3 | 1000.6 | 2.5 | N | 0 | 0.1 |
| 24.01.2026 | 23:59 | 1.5 | 80 | -1.6 | 1000.5 | 2.2 | NO | 0 | 0.1 |